Current Weather

Mors Muni - JR Washburn Field

Mors Muni - JR Washburn Field, Illinois (KC09)

Report from: Wednesday, August 17, 2022 10:55 AM CDT
Current time: Wednesday, August 17, 2022 9:42 PM CDT

Nearby weather
Weather history
Weather forecast

Temperature24.5°C (76.1°F)
Dew point18.6°C (65.5°F)
Winds Calm
Visibility10 mi. (16.1 km)
Clouds Sky clear
Altimeter30.14 in.Hg (1021 mB)
Relative humidity70 %
Density altitude1,145 ft. (349 m)
Remarks Fully automated report
Automated weather observing station with precipitation discriminator
Flight conditions Visual Meteorological Conditions
Raw dataKC09 171555Z AUTO 00000KT 10SM CLR 25/19 A3014 RMK AO2 T02450186
An error has occurred. This application may no longer respond until reloaded. Reload 🗙